Time;durP1;ratioP1;P1;durP2;ratioP2;P2;SDS_P1;SDS_P2;PMS_P1;PMS_P2;Temp;Humidity;BMP_temperature;BMP_pressure;BME280_temperature;BME280_humidity;BME280_pressure;Samples;Min_cycle;Max_cycle;Signal;HPM_P1;HPM_P2
2023/12/21 00:02:14;;;;;;;11.40;3.63;;;10.50;99.90;;;;;;4916962;28;91653;-79
2023/12/21 00:04:39;;;;;;;8.20;3.35;;;10.50;99.90;;;;;;4914407;28;93307;-78
2023/12/21 00:07:05;;;;;;;11.57;3.53;;;10.60;99.90;;;;;;4919657;28;92621;-80
2023/12/21 00:09:31;;;;;;;17.05;3.90;;;10.60;99.90;;;;;;4946778;28;93195;-79
2023/12/21 00:11:57;;;;;;;10.18;3.60;;;10.70;99.90;;;;;;4941244;28;92798;-77
2023/12/21 00:14:23;;;;;;;12.70;4.20;;;10.70;99.90;;;;;;4938219;28;94439;-79
2023/12/21 00:16:49;;;;;;;10.48;3.85;;;10.60;99.90;;;;;;4943848;28;93101;-79
2023/12/21 00:19:30;;;;;;;11.32;3.70;;;10.60;99.90;;;;;;4936515;28;92106;-79
2023/12/21 00:21:55;;;;;;;14.65;3.60;;;10.60;99.90;;;;;;4917055;28;92455;-79
2023/12/21 00:24:25;;;;;;;10.40;3.83;;;10.60;99.90;;;;;;4934591;28;96072;-80
2023/12/21 00:26:51;;;;;;;13.85;3.90;;;10.50;99.90;;;;;;4944345;28;96072;-79
2023/12/21 00:29:19;;;;;;;14.10;4.05;;;10.30;99.90;;;;;;4944209;28;92665;-79
2023/12/21 00:31:44;;;;;;;12.95;3.67;;;10.10;99.90;;;;;;4947685;28;92468;-79
2023/12/21 00:34:12;;;;;;;15.85;3.95;;;10.10;99.90;;;;;;4943116;28;96460;-79
2023/12/21 00:36:38;;;;;;;15.60;3.80;;;10.10;99.90;;;;;;4948174;28;95675;-79
2023/12/21 00:39:05;;;;;;;10.60;3.78;;;10.10;99.90;;;;;;4950165;28;92228;-79
2023/12/21 00:41:30;;;;;;;10.27;3.78;;;10.10;99.90;;;;;;4952532;28;92766;-80
2023/12/21 00:43:59;;;;;;;11.35;3.70;;;10.10;99.90;;;;;;4951119;28;95811;-82
2023/12/21 00:46:25;;;;;;;17.75;3.97;;;10.00;99.90;;;;;;4951052;28;95530;-80
2023/12/21 00:48:50;;;;;;;17.17;3.58;;;10.00;99.90;;;;;;4949967;28;92564;-79
2023/12/21 00:51:22;;;;;;;12.82;3.83;;;10.00;99.90;;;;;;4922105;28;92026;-79
2023/12/21 00:53:48;;;;;;;13.27;3.90;;;10.00;99.90;;;;;;4922700;28;96317;-80
2023/12/21 00:56:22;;;;;;;14.65;3.53;;;10.00;99.90;;;;;;4923054;28;92789;-80
2023/12/21 00:58:47;;;;;;;14.10;3.58;;;10.00;99.90;;;;;;4928664;28;93050;-79
2023/12/21 01:01:32;;;;;;;12.73;3.22;;;10.00;99.90;;;;;;4940768;28;92244;-78
2023/12/21 01:03:57;;;;;;;13.82;3.63;;;9.90;99.90;;;;;;4940729;28;93666;-80
2023/12/21 01:09:34;;;;;;;17.73;3.58;;;10.00;99.90;;;;;;4937528;28;92366;-80
2023/12/21 01:12:09;;;;;;;11.27;3.83;;;10.10;99.90;;;;;;4944884;28;92203;-79
2023/12/21 01:14:35;;;;;;;14.85;3.55;;;10.10;99.90;;;;;;4935800;28;94902;-80
2023/12/21 01:17:02;;;;;;;13.50;3.28;;;10.10;99.90;;;;;;4944427;28;93051;-79
2023/12/21 01:19:33;;;;;;;14.52;4.30;;;10.10;99.90;;;;;;4953119;28;92375;-79
2023/12/21 01:21:59;;;;;;;10.52;3.75;;;10.10;99.90;;;;;;4945372;28;92881;-79
2023/12/21 01:24:39;;;;;;;10.63;3.75;;;10.00;99.90;;;;;;4919506;28;96648;-80
2023/12/21 01:27:04;;;;;;;11.98;4.07;;;10.00;99.90;;;;;;4935149;28;95783;-79
2023/12/21 01:29:30;;;;;;;15.02;3.70;;;9.90;99.90;;;;;;4940887;28;92306;-79
2023/12/21 01:31:58;;;;;;;13.25;3.30;;;9.90;99.90;;;;;;4938697;28;92481;-80
2023/12/21 01:34:24;;;;;;;12.20;3.92;;;9.90;99.90;;;;;;4939087;28;93904;-79
2023/12/21 01:36:49;;;;;;;12.30;3.65;;;9.90;99.90;;;;;;4945847;28;95296;-79
2023/12/21 01:39:26;;;;;;;12.02;4.20;;;9.90;99.90;;;;;;4950375;28;92430;-79
2023/12/21 01:41:52;;;;;;;19.58;4.88;;;9.90;99.90;;;;;;4946299;28;91764;-79
2023/12/21 01:44:33;;;;;;;14.63;3.40;;;9.90;99.90;;;;;;4951123;28;93300;-79
2023/12/21 01:46:58;;;;;;;12.85;3.60;;;10.00;99.90;;;;;;4942380;28;93211;-81
2023/12/21 01:49:36;;;;;;;14.95;3.78;;;9.90;99.90;;;;;;4944352;28;96341;-80
2023/12/21 01:52:16;;;;;;;13.68;4.00;;;9.90;99.90;;;;;;4937931;28;92244;-79
2023/12/21 01:54:41;;;;;;;13.57;3.58;;;9.90;99.90;;;;;;4925609;28;94770;-80
2023/12/21 01:57:08;;;;;;;13.88;3.75;;;9.90;99.90;;;;;;4952461;28;92816;-81
2023/12/21 01:59:34;;;;;;;15.10;3.58;;;10.00;99.90;;;;;;4932728;28;92627;-80
2023/12/21 02:02:36;;;;;;;11.02;3.30;;;10.10;99.90;;;;;;4953967;28;92373;-79
2023/12/21 02:05:01;;;;;;;9.25;3.20;;;10.20;99.90;;;;;;4926695;28;96367;-80
2023/12/21 02:07:48;;;;;;;12.43;3.20;;;10.30;99.90;;;;;;4952420;28;95473;-79
2023/12/21 02:10:14;;;;;;;14.05;3.67;;;10.30;99.90;;;;;;4950161;28;92831;-80
2023/12/21 02:12:44;;;;;;;14.07;3.67;;;10.30;99.90;;;;;;4930785;28;92479;-79
2023/12/21 02:15:10;;;;;;;11.88;3.25;;;10.40;99.90;;;;;;4936363;28;100442;-80
2023/12/21 02:17:54;;;;;;;12.30;3.78;;;10.40;99.90;;;;;;4916999;28;95466;-82
2023/12/21 02:24:00;;;;;;;13.88;3.97;;;10.40;99.90;;;;;;4927128;28;92231;-80
2023/12/21 02:26:29;;;;;;;10.25;3.92;;;10.50;99.90;;;;;;4931048;28;93237;-79
2023/12/21 02:29:37;;;;;;;9.43;3.53;;;10.50;99.90;;;;;;4930439;28;92973;-78
2023/12/21 02:32:03;;;;;;;16.38;4.40;;;10.40;99.90;;;;;;4909219;28;92257;-80
2023/12/21 02:34:56;;;;;;;21.77;3.83;;;10.40;99.90;;;;;;4925525;28;91376;-78
2023/12/21 02:37:22;;;;;;;17.70;4.70;;;10.40;99.90;;;;;;4940450;28;93654;-80
2023/12/21 02:40:04;;;;;;;14.98;4.18;;;10.40;99.90;;;;;;4941535;28;92984;-80
2023/12/21 02:42:29;;;;;;;19.83;4.50;;;10.40;99.90;;;;;;4942604;28;93012;-80
2023/12/21 02:51:56;;;;;;;12.80;3.45;;;10.50;99.90;;;;;;4926531;28;96429;-79
2023/12/21 02:54:22;;;;;;;19.98;4.63;;;10.50;99.90;;;;;;4916093;28;92214;-79
2023/12/21 03:00:50;;;;;;;15.35;4.78;;;10.50;99.90;;;;;;4941058;28;95931;-80
2023/12/21 03:03:16;;;;;;;17.90;3.83;;;10.60;99.90;;;;;;4968794;28;97599;-83
2023/12/21 03:05:46;;;;;;;16.65;3.97;;;10.50;99.90;;;;;;4949077;28;92850;-79
2023/12/21 03:08:11;;;;;;;20.33;4.07;;;10.50;99.90;;;;;;4964490;28;92718;-80
2023/12/21 03:11:16;;;;;;;18.67;6.30;;;10.50;99.90;;;;;;4973541;28;95525;-80
2023/12/21 03:13:41;;;;;;;;;;;10.50;99.90;;;;;;4957641;28;95403;-81
2023/12/21 03:16:23;;;;;;;24.40;4.43;;;10.60;99.90;;;;;;4945800;28;92203;-81
2023/12/21 03:19:03;;;;;;;28.33;5.03;;;10.50;99.90;;;;;;4923295;28;92254;-79
2023/12/21 03:56:15;;;;;;;21.67;4.43;;;10.50;99.90;;;;;;4936059;28;93601;-79
2023/12/21 03:59:16;;;;;;;15.13;3.80;;;10.50;99.90;;;;;;4931027;28;94478;-80
2023/12/21 04:01:41;;;;;;;14.02;3.63;;;10.60;99.90;;;;;;4940937;28;94376;-79
2023/12/21 04:04:09;;;;;;;24.80;3.88;;;10.60;99.90;;;;;;4949958;28;92430;-80
2023/12/21 04:06:35;;;;;;;22.00;4.88;;;10.60;99.90;;;;;;4947765;28;92708;-80
2023/12/21 04:09:02;;;;;;;19.33;4.80;;;10.60;99.90;;;;;;4945839;28;98271;-81
2023/12/21 04:11:28;;;;;;;21.02;5.00;;;10.40;99.90;;;;;;4970816;28;94001;-79
2023/12/21 04:13:59;;;;;;;21.27;4.03;;;10.30;99.90;;;;;;4939766;28;93072;-79
2023/12/21 04:16:25;;;;;;;29.23;4.75;;;10.20;99.90;;;;;;4922468;28;93155;-79
2023/12/21 04:18:50;;;;;;;32.40;5.47;;;10.20;99.90;;;;;;4921919;28;95103;-80
2023/12/21 04:21:40;;;;;;;25.20;4.63;;;10.30;99.90;;;;;;4961669;28;94035;-79
2023/12/21 04:24:06;;;;;;;26.65;4.93;;;10.40;99.90;;;;;;4936325;28;92190;-80
2023/12/21 04:26:32;;;;;;;23.50;3.92;;;10.30;99.90;;;;;;4935656;28;91641;-79
2023/12/21 04:28:59;;;;;;;27.95;4.80;;;10.30;99.90;;;;;;4950419;28;93452;-79
2023/12/21 04:31:25;;;;;;;26.20;4.68;;;10.30;99.90;;;;;;4959728;28;93426;-79
2023/12/21 04:33:55;;;;;;;34.13;6.55;;;10.20;99.90;;;;;;4957351;28;93038;-79
2023/12/21 04:36:30;;;;;;;26.00;4.78;;;10.30;99.90;;;;;;4941289;28;92897;-79
2023/12/21 04:38:56;;;;;;;30.00;4.53;;;10.30;99.90;;;;;;4957542;28;93562;-79
2023/12/21 04:41:22;;;;;;;29.65;5.57;;;10.30;99.90;;;;;;4928475;28;95370;-79
2023/12/21 04:43:48;;;;;;;21.73;4.63;;;10.30;99.90;;;;;;4923793;28;92163;-79
2023/12/21 04:46:14;;;;;;;24.02;4.50;;;10.30;99.90;;;;;;4924222;28;93512;-79
2023/12/21 04:48:49;;;;;;;25.27;3.95;;;10.40;99.90;;;;;;4943954;28;92393;-80
2023/12/21 04:51:17;;;;;;;27.33;5.30;;;10.40;99.90;;;;;;4943889;28;92693;-78
2023/12/21 04:53:45;;;;;;;35.58;5.28;;;10.40;99.90;;;;;;4941787;28;92493;-80
2023/12/21 04:56:24;;;;;;;25.98;4.15;;;10.40;99.90;;;;;;4943299;28;92212;-79
2023/12/21 04:58:50;;;;;;;21.38;4.35;;;10.50;99.90;;;;;;4925157;28;97429;-80
2023/12/21 05:01:15;;;;;;;21.95;4.13;;;10.50;99.90;;;;;;4957020;28;93924;-79
2023/12/21 05:04:10;;;;;;;26.00;6.05;;;10.50;99.90;;;;;;4942483;28;92636;-79
2023/12/21 05:06:35;;;;;;;25.08;4.68;;;10.50;99.90;;;;;;4912803;28;92403;-81
2023/12/21 05:09:01;;;;;;;29.67;4.90;;;10.60;99.90;;;;;;4940853;28;93071;-79
2023/12/21 05:11:32;;;;;;;26.45;4.45;;;10.60;99.90;;;;;;4942432;28;92883;-78
2023/12/21 05:14:00;;;;;;;18.85;4.15;;;10.60;99.90;;;;;;4943563;28;92361;-79
2023/12/21 05:16:26;;;;;;;23.48;4.13;;;10.60;99.90;;;;;;4939237;28;91911;-79
2023/12/21 05:19:15;;;;;;;22.38;4.28;;;10.60;99.90;;;;;;4942321;28;92798;-81
2023/12/21 05:21:40;;;;;;;24.13;4.50;;;10.50;99.90;;;;;;4940627;28;93482;-81
2023/12/21 05:24:31;;;;;;;26.73;4.57;;;10.60;99.90;;;;;;4943852;28;94653;-79
2023/12/21 05:26:57;;;;;;;28.48;4.65;;;10.60;99.90;;;;;;4961576;28;92528;-79
2023/12/21 05:29:56;;;;;;;19.25;5.22;;;10.50;99.90;;;;;;4960843;28;95349;-79
2023/12/21 05:32:22;;;;;;;25.20;4.72;;;10.60;99.90;;;;;;4963094;28;93302;-81
2023/12/21 05:34:48;;;;;;;25.40;4.68;;;10.60;99.90;;;;;;4936101;28;92652;-80
2023/12/21 05:37:13;;;;;;;27.08;4.10;;;10.50;99.90;;;;;;4941395;28;92112;-80
2023/12/21 05:39:48;;;;;;;23.92;4.60;;;10.50;99.90;;;;;;4941691;28;96306;-79
2023/12/21 05:42:14;;;;;;;23.42;4.05;;;10.50;99.90;;;;;;4945107;28;92523;-79
2023/12/21 05:44:45;;;;;;;28.92;4.38;;;10.50;99.90;;;;;;4929143;28;92370;-79
2023/12/21 05:47:11;;;;;;;29.25;5.20;;;10.50;99.90;;;;;;4941066;28;92351;-78
2023/12/21 05:49:38;;;;;;;24.00;4.80;;;10.50;99.90;;;;;;4941023;28;96284;-79
2023/12/21 05:52:04;;;;;;;32.60;5.65;;;10.60;99.90;;;;;;4942814;28;94386;-80
2023/12/21 05:54:36;;;;;;;26.25;4.00;;;10.60;99.90;;;;;;4943787;28;92014;-80
2023/12/21 05:57:26;;;;;;;19.60;3.53;;;10.60;99.90;;;;;;4942248;28;92092;-79
2023/12/21 05:59:52;;;;;;;23.92;4.30;;;10.70;99.90;;;;;;4941994;28;93291;-79
2023/12/21 06:06:13;;;;;;;29.55;4.07;;;10.70;99.90;;;;;;4956549;28;92447;-79
2023/12/21 06:08:39;;;;;;;23.80;4.25;;;10.80;99.90;;;;;;4945478;28;91367;-79
2023/12/21 06:14:42;;;;;;;21.08;3.58;;;10.80;99.90;;;;;;4940856;28;92866;-79
2023/12/21 06:17:09;;;;;;;21.60;2.70;;;10.80;99.90;;;;;;4942816;28;93472;-79
2023/12/21 06:23:15;;;;;;;22.33;3.13;;;10.90;99.90;;;;;;4940984;28;92715;-79
2023/12/21 06:25:41;;;;;;;18.65;3.75;;;10.90;99.90;;;;;;4941619;28;93233;-80
2023/12/21 06:28:09;;;;;;;22.58;3.22;;;10.90;99.90;;;;;;4941241;28;92126;-80
2023/12/21 06:30:35;;;;;;;18.67;2.80;;;10.90;99.90;;;;;;4940980;28;92679;-86
2023/12/21 06:33:00;;;;;;;21.98;4.30;;;10.90;99.90;;;;;;4962611;28;93558;-86
2023/12/21 06:35:46;;;;;;;17.83;2.50;;;11.00;99.90;;;;;;4962726;28;94370;-85
2023/12/21 06:38:12;;;;;;;21.73;3.15;;;11.00;99.90;;;;;;4960372;28;92561;-87
2023/12/21 06:40:49;;;;;;;19.98;3.10;;;11.00;99.90;;;;;;4935535;28;92166;-87
2023/12/21 07:11:44;;;;;;;19.25;2.83;;;10.70;99.90;;;;;;5603487;23;97164;-78
2023/12/21 07:14:10;;;;;;;14.98;2.20;;;10.60;99.90;;;;;;4937524;28;97325;-77
2023/12/21 07:16:35;;;;;;;14.38;2.38;;;10.60;99.90;;;;;;4968109;28;95131;-77
2023/12/21 07:19:02;;;;;;;12.73;1.92;;;10.60;99.90;;;;;;4963742;28;93164;-77
2023/12/21 07:21:28;;;;;;;15.77;2.33;;;10.50;99.90;;;;;;4984432;28;92172;-78
2023/12/21 07:23:54;;;;;;;14.27;3.38;;;10.50;99.90;;;;;;4997572;28;93903;-80
2023/12/21 07:26:20;;;;;;;10.40;2.88;;;10.50;99.90;;;;;;4983335;28;94095;-79
2023/12/21 07:28:45;;;;;;;13.40;3.13;;;10.60;99.90;;;;;;4997656;28;92475;-77
2023/12/21 07:31:13;;;;;;;12.80;2.10;;;10.50;99.90;;;;;;4984074;28;92377;-80
2023/12/21 07:33:39;;;;;;;12.55;2.08;;;10.50;99.90;;;;;;5001150;28;96003;-80
2023/12/21 07:36:07;;;;;;;13.13;2.55;;;10.50;99.90;;;;;;4997215;28;94354;-79
2023/12/21 07:38:33;;;;;;;8.85;2.13;;;10.50;99.90;;;;;;4983590;28;92119;-79
2023/12/21 07:40:59;;;;;;;12.75;2.40;;;10.50;99.90;;;;;;4999220;28;92521;-80
2023/12/21 07:43:25;;;;;;;14.50;4.07;;;10.50;99.90;;;;;;5000215;28;92802;-80
2023/12/21 07:45:52;;;;;;;11.73;2.00;;;10.50;99.90;;;;;;4996240;28;93513;-80
2023/12/21 07:48:18;;;;;;;13.00;2.20;;;10.50;99.90;;;;;;4978505;28;93045;-79
2023/12/21 07:50:43;;;;;;;17.45;3.40;;;10.60;99.90;;;;;;5000233;28;91960;-79
2023/12/21 07:53:09;;;;;;;16.35;2.53;;;10.60;99.90;;;;;;4977503;28;99695;-80
2023/12/21 07:55:35;;;;;;;13.75;3.17;;;10.60;99.90;;;;;;4975740;28;97033;-79
2023/12/21 07:58:00;;;;;;;15.68;2.15;;;10.60;99.90;;;;;;4995447;28;93488;-80
2023/12/21 08:00:26;;;;;;;14.52;2.35;;;10.60;99.90;;;;;;4993298;28;93281;-80
2023/12/21 08:02:52;;;;;;;12.52;3.00;;;10.60;99.90;;;;;;4991350;28;93178;-80
2023/12/21 08:05:22;;;;;;;11.43;2.65;;;10.60;99.90;;;;;;4990835;28;93343;-79
2023/12/21 08:07:49;;;;;;;13.63;2.80;;;10.60;99.90;;;;;;4970025;28;93251;-79
2023/12/21 08:10:15;;;;;;;17.20;2.70;;;10.60;99.90;;;;;;4969560;28;93384;-79
2023/12/21 08:12:41;;;;;;;15.27;2.83;;;10.60;99.90;;;;;;4992037;28;92705;-79
2023/12/21 08:15:09;;;;;;;9.32;2.58;;;10.60;99.90;;;;;;4991136;28;92317;-79
2023/12/21 08:17:36;;;;;;;18.23;2.55;;;10.60;99.90;;;;;;4992981;28;92695;-80
2023/12/21 08:20:05;;;;;;;14.80;2.17;;;10.60;99.90;;;;;;4978382;28;92061;-79
2023/12/21 08:22:31;;;;;;;17.80;2.90;;;10.60;99.90;;;;;;5005033;28;94086;-80
2023/12/21 08:24:58;;;;;;;15.15;2.72;;;10.60;99.90;;;;;;5002147;28;96400;-79
2023/12/21 08:27:24;;;;;;;14.23;2.53;;;10.50;99.90;;;;;;4989833;28;93511;-79
2023/12/21 08:29:51;;;;;;;15.45;2.47;;;10.50;99.90;;;;;;4990003;28;92970;-78
2023/12/21 08:32:18;;;;;;;10.23;2.83;;;10.50;99.90;;;;;;4989735;28;94811;-78
2023/12/21 08:34:44;;;;;;;12.18;2.40;;;10.50;99.90;;;;;;5007492;28;92101;-78
2023/12/21 08:37:10;;;;;;;12.98;2.40;;;10.50;99.90;;;;;;5006496;28;93814;-78
2023/12/21 08:39:36;;;;;;;10.85;2.40;;;10.50;99.90;;;;;;4990681;28;91648;-79
2023/12/21 08:42:06;;;;;;;12.95;2.20;;;10.40;99.90;;;;;;4988267;28;93875;-79
2023/12/21 08:44:31;;;;;;;12.32;2.22;;;10.40;99.90;;;;;;5006099;28;92371;-79
2023/12/21 08:46:57;;;;;;;15.25;3.35;;;10.40;99.90;;;;;;4985311;28;93382;-79
2023/12/21 08:49:22;;;;;;;15.48;2.13;;;10.40;99.90;;;;;;4990850;28;92418;-79
2023/12/21 08:51:49;;;;;;;13.18;2.13;;;10.40;99.90;;;;;;5151112;22;93521;-79
2023/12/21 08:54:17;;;;;;;9.02;1.70;;;10.40;99.90;;;;;;4991510;28;92216;-79
2023/12/21 08:56:44;;;;;;;8.65;1.33;;;10.40;99.90;;;;;;5144126;22;93486;-79
2023/12/21 09:04:30;;;;;;;10.15;1.80;;;10.30;99.90;;;;;;5007831;22;93654;-79
2023/12/21 09:06:56;;;;;;;8.18;1.85;;;10.30;99.90;;;;;;4953385;28;92020;-80
2023/12/21 09:09:25;;;;;;;8.13;1.70;;;10.30;99.90;;;;;;5032904;22;92143;-80
2023/12/21 09:11:50;;;;;;;11.07;2.28;;;10.30;99.90;;;;;;5487911;22;95483;-79
2023/12/21 09:22:03;;;;;;;7.75;1.90;;;10.30;99.90;;;;;;6018167;22;93943;-80
2023/12/21 09:24:28;;;;;;;7.47;1.90;;;10.30;99.90;;;;;;5971742;22;93407;-80
2023/12/21 09:37:16;;;;;;;11.48;1.98;;;10.30;99.90;;;;;;5965652;22;94112;-80
2023/12/21 09:42:19;;;;;;;14.38;2.17;;;10.30;99.90;;;;;;5929314;22;93681;-80
2023/12/21 09:44:49;;;;;;;12.00;2.78;;;10.30;99.90;;;;;;5610143;22;94073;-80
2023/12/21 09:55:00;;;;;;;10.05;1.75;;;10.40;99.90;;;;;;6066769;22;93012;-79
2023/12/21 09:57:26;;;;;;;14.57;2.05;;;10.50;99.90;;;;;;4942017;28;92043;-80
2023/12/21 09:59:55;;;;;;;11.52;1.83;;;10.50;99.90;;;;;;4943221;28;91967;-80
2023/12/21 10:04:56;;;;;;;10.77;1.55;;;10.60;99.90;;;;;;5417037;22;94454;-79
2023/12/21 10:07:26;;;;;;;9.95;1.75;;;10.60;99.90;;;;;;5482101;22;93449;-80
2023/12/21 10:12:40;;;;;;;11.00;1.90;;;10.70;99.90;;;;;;5271644;22;92928;-80
2023/12/21 10:15:06;;;;;;;6.55;1.08;;;10.70;99.90;;;;;;4949007;28;92423;-81
2023/12/21 10:17:33;;;;;;;5.72;1.90;;;10.80;99.90;;;;;;5349035;22;93848;-82
2023/12/21 10:22:34;;;;;;;14.55;1.95;;;10.80;99.90;;;;;;5252313;22;93190;-78
2023/12/21 10:24:59;;;;;;;6.80;1.13;;;10.90;99.90;;;;;;4914913;28;93024;-77
2023/12/21 10:27:29;;;;;;;5.82;1.15;;;10.90;99.90;;;;;;4921140;28;94200;-80
2023/12/21 10:29:56;;;;;;;9.20;2.15;;;11.00;99.90;;;;;;4898366;28;93519;-80
2023/12/21 10:32:22;;;;;;;10.68;0.98;;;11.00;99.90;;;;;;4890437;28;94590;-79
2023/12/21 10:34:51;;;;;;;5.93;1.23;;;11.00;99.90;;;;;;4915022;28;93544;-78
2023/12/21 10:37:16;;;;;;;6.60;0.80;;;11.10;99.90;;;;;;4897266;28;92691;-79
2023/12/21 10:39:45;;;;;;;6.15;0.98;;;11.10;99.90;;;;;;4918386;28;92533;-79
2023/12/21 10:42:16;;;;;;;2.60;0.90;;;11.20;99.90;;;;;;4917990;28;98800;-78
2023/12/21 10:44:47;;;;;;;4.55;0.68;;;11.20;99.90;;;;;;4912177;28;92657;-79
2023/12/21 10:47:15;;;;;;;6.03;1.25;;;11.20;99.90;;;;;;4915607;28;92867;-79
2023/12/21 10:49:42;;;;;;;5.68;0.77;;;11.30;99.90;;;;;;4911766;28;93222;-79
2023/12/21 10:52:14;;;;;;;6.32;1.00;;;11.30;99.90;;;;;;4909271;28;96791;-77
2023/12/21 10:54:42;;;;;;;7.22;0.93;;;11.40;99.90;;;;;;4915714;28;93548;-78
2023/12/21 10:57:14;;;;;;;2.80;0.80;;;11.40;99.90;;;;;;4916824;28;92802;-79
2023/12/21 10:59:43;;;;;;;4.57;0.70;;;11.50;99.90;;;;;;4919772;28;92850;-80
2023/12/21 11:02:13;;;;;;;8.05;0.85;;;11.50;99.90;;;;;;4918167;28;93397;-79
2023/12/21 11:04:42;;;;;;;6.43;0.98;;;11.60;99.90;;;;;;4909266;28;93241;-79
2023/12/21 11:07:09;;;;;;;7.35;0.80;;;11.60;99.90;;;;;;4895936;28;93205;-79
2023/12/21 11:09:35;;;;;;;2.38;0.80;;;11.70;99.90;;;;;;4913015;28;92392;-79
2023/12/21 11:12:02;;;;;;;3.85;0.70;;;11.70;99.90;;;;;;4893356;28;94127;-79
2023/12/21 11:14:28;;;;;;;2.70;0.60;;;11.80;99.90;;;;;;4913420;28;92994;-79
2023/12/21 11:17:00;;;;;;;3.78;0.80;;;11.80;99.90;;;;;;4909103;28;93926;-78
2023/12/21 11:19:38;;;;;;;4.40;0.80;;;11.80;99.90;;;;;;4907944;28;92836;-78
2023/12/21 11:22:04;;;;;;;8.75;1.10;;;11.80;99.90;;;;;;4891934;28;93360;-78
2023/12/21 11:24:33;;;;;;;4.32;0.95;;;11.80;99.90;;;;;;4903475;28;96587;-78
2023/12/21 11:27:01;;;;;;;3.65;0.95;;;11.90;99.90;;;;;;4909080;28;92681;-79
2023/12/21 11:29:28;;;;;;;2.05;1.00;;;11.90;99.90;;;;;;4895334;28;93269;-78
2023/12/21 11:31:55;;;;;;;2.63;1.08;;;11.90;99.90;;;;;;4888826;28;96038;-77
2023/12/21 11:34:33;;;;;;;6.93;1.10;;;11.90;99.90;;;;;;4909569;28;92832;-77
2023/12/21 11:37:37;;;;;;;1.92;0.88;;;12.00;99.90;;;;;;4909994;28;93166;-78
2023/12/21 11:40:04;;;;;;;4.68;1.13;;;11.90;99.90;;;;;;4805058;29;93509;-78
2023/12/21 11:42:37;;;;;;;6.93;1.00;;;11.90;99.90;;;;;;4874378;28;96000;-79
2023/12/21 11:45:08;;;;;;;4.28;0.93;;;11.80;99.90;;;;;;4911388;28;96823;-79
2023/12/21 11:47:35;;;;;;;5.70;0.95;;;11.70;99.90;;;;;;4897590;28;92804;-81
2023/12/21 11:50:10;;;;;;;6.35;1.45;;;11.70;99.90;;;;;;4928862;28;92845;-81
2023/12/21 11:52:36;;;;;;;4.75;0.80;;;11.60;99.90;;;;;;4908619;28;95790;-80
2023/12/21 11:55:03;;;;;;;3.13;1.20;;;11.60;99.90;;;;;;4921173;28;94018;-80
2023/12/21 11:57:29;;;;;;;7.35;1.17;;;11.50;99.90;;;;;;4927588;28;93398;-80
2023/12/21 12:00:06;;;;;;;4.10;1.10;;;11.50;99.90;;;;;;4939427;28;91861;-80
2023/12/21 12:02:34;;;;;;;3.33;0.93;;;11.40;99.90;;;;;;4924167;28;93651;-80
2023/12/21 12:05:03;;;;;;;5.50;1.02;;;11.40;99.90;;;;;;4895062;28;95465;-78
2023/12/21 12:07:32;;;;;;;2.78;0.63;;;11.40;99.90;;;;;;4900220;28;93464;-81
2023/12/21 12:10:01;;;;;;;3.80;0.82;;;11.40;99.90;;;;;;4900567;28;92249;-80
2023/12/21 12:12:26;;;;;;;6.18;0.70;;;11.40;99.90;;;;;;4912810;28;94730;-79
2023/12/21 12:14:52;;;;;;;3.95;0.70;;;11.40;99.90;;;;;;4912898;28;94949;-79
2023/12/21 12:17:18;;;;;;;5.82;0.55;;;11.40;99.90;;;;;;4908799;28;93336;-79
2023/12/21 12:19:44;;;;;;;4.10;0.77;;;11.40;99.90;;;;;;4908006;28;92734;-80
2023/12/21 12:22:10;;;;;;;3.03;0.60;;;11.50;99.90;;;;;;4907419;28;92728;-80
2023/12/21 12:24:36;;;;;;;4.25;0.60;;;11.50;99.90;;;;;;4915656;28;93298;-80
2023/12/21 12:27:02;;;;;;;4.38;1.95;;;11.50;99.90;;;;;;4912567;28;92720;-80
2023/12/21 12:29:29;;;;;;;7.30;0.52;;;11.60;99.90;;;;;;4895428;28;93175;-78
2023/12/21 12:31:55;;;;;;;1.88;0.60;;;11.70;99.90;;;;;;4916169;28;96770;-79
2023/12/21 12:34:24;;;;;;;3.22;0.57;;;11.80;99.90;;;;;;4915390;28;94609;-79
2023/12/21 12:36:54;;;;;;;3.60;0.60;;;11.90;99.90;;;;;;4911383;28;92689;-79
2023/12/21 12:39:21;;;;;;;3.42;0.50;;;12.00;99.90;;;;;;4910863;28;92465;-78
2023/12/21 12:41:57;;;;;;;1.77;0.50;;;12.10;99.90;;;;;;4894668;28;95070;-79
2023/12/21 12:44:24;;;;;;;2.38;0.30;;;12.10;99.90;;;;;;4896951;28;93707;-78
2023/12/21 12:46:50;;;;;;;4.60;0.60;;;12.20;99.90;;;;;;4916008;28;92715;-79
2023/12/21 12:49:16;;;;;;;1.13;0.35;;;12.20;99.90;;;;;;4916989;28;92120;-78
2023/12/21 12:51:42;;;;;;;2.17;0.45;;;12.20;99.90;;;;;;4911587;28;95738;-78
2023/12/21 12:54:09;;;;;;;2.08;0.30;;;12.20;99.90;;;;;;4912738;28;94671;-78
2023/12/21 12:56:48;;;;;;;2.85;0.55;;;12.20;99.90;;;;;;4909005;28;93818;-77
2023/12/21 12:59:17;;;;;;;2.38;0.40;;;12.20;99.90;;;;;;4912141;28;93167;-79
2023/12/21 13:01:43;;;;;;;2.85;0.40;;;12.20;99.90;;;;;;4911186;28;93868;-78
2023/12/21 13:04:09;;;;;;;2.78;0.40;;;12.20;99.90;;;;;;4891662;28;94381;-79
2023/12/21 13:06:34;;;;;;;3.55;0.50;;;12.30;99.90;;;;;;4892216;28;93303;-78
2023/12/21 13:09:00;;;;;;;1.15;0.35;;;12.20;99.90;;;;;;4910485;28;93013;-77
2023/12/21 13:11:26;;;;;;;1.67;0.30;;;12.20;99.90;;;;;;4912104;28;95906;-79
2023/12/21 13:13:52;;;;;;;4.28;0.57;;;12.20;99.90;;;;;;4915624;28;92896;-80
2023/12/21 13:16:20;;;;;;;2.17;0.55;;;12.20;99.90;;;;;;4898699;28;93104;-80
2023/12/21 13:18:47;;;;;;;6.57;0.70;;;12.10;99.90;;;;;;4888667;28;93138;-77
2023/12/21 13:21:15;;;;;;;4.07;0.50;;;12.10;99.90;;;;;;4895331;28;96925;-78
2023/12/21 13:23:42;;;;;;;1.52;0.47;;;12.10;99.90;;;;;;4904445;28;98603;-78
2023/12/21 13:26:08;;;;;;;6.40;1.48;;;12.10;99.90;;;;;;4911904;28;93567;-78
2023/12/21 13:28:38;;;;;;;6.18;0.60;;;12.10;99.90;;;;;;4913282;28;92863;-79
2023/12/21 13:31:04;;;;;;;4.28;0.65;;;12.00;99.90;;;;;;4912082;28;93311;-79
2023/12/21 13:33:30;;;;;;;4.07;0.60;;;12.00;99.90;;;;;;4897443;28;96448;-80
2023/12/21 13:35:56;;;;;;;4.57;0.88;;;11.90;99.90;;;;;;4890075;28;93180;-80
2023/12/21 13:38:22;;;;;;;4.75;0.73;;;12.00;99.90;;;;;;4917587;28;92455;-80
2023/12/21 13:40:48;;;;;;;3.58;0.90;;;12.00;99.90;;;;;;4891111;28;93717;-78
2023/12/21 13:43:18;;;;;;;2.67;0.65;;;12.10;99.90;;;;;;4918115;28;92951;-79
2023/12/21 13:45:44;;;;;;;5.82;0.77;;;12.20;99.90;;;;;;4912729;28;93686;-78
2023/12/21 13:48:11;;;;;;;7.03;1.15;;;12.20;99.90;;;;;;4917449;28;92843;-78
2023/12/21 13:50:37;;;;;;;2.95;0.50;;;12.20;99.90;;;;;;4912287;28;94049;-79
2023/12/21 13:53:03;;;;;;;2.47;0.50;;;12.30;99.90;;;;;;4909938;28;93687;-78
2023/12/21 13:55:30;;;;;;;3.20;0.70;;;12.30;99.90;;;;;;4891320;28;92838;-77
2023/12/21 13:57:56;;;;;;;3.97;0.80;;;12.30;99.90;;;;;;4894459;28;93351;-79
2023/12/21 14:00:22;;;;;;;4.38;0.60;;;12.40;99.90;;;;;;4911595;28;93352;-76
2023/12/21 14:02:49;;;;;;;4.30;0.50;;;12.40;99.90;;;;;;4914816;28;92980;-79
2023/12/21 14:05:16;;;;;;;1.30;0.52;;;12.50;99.90;;;;;;4909663;28;92214;-76
2023/12/21 14:07:42;;;;;;;4.65;0.45;;;12.50;99.90;;;;;;4886263;28;92996;-78
2023/12/21 14:10:08;;;;;;;5.85;0.52;;;12.60;99.90;;;;;;4910629;28;94685;-79
2023/12/21 14:12:34;;;;;;;2.55;0.50;;;12.70;99.90;;;;;;4894106;28;97577;-77
2023/12/21 14:15:03;;;;;;;6.93;0.82;;;12.80;99.90;;;;;;4903758;28;93189;-77
2023/12/21 14:17:29;;;;;;;3.20;1.25;;;12.90;99.90;;;;;;4893667;28;92996;-79
2023/12/21 14:19:54;;;;;;;4.50;1.00;;;12.90;99.90;;;;;;4912119;28;94613;-78
2023/12/21 14:22:22;;;;;;;7.97;0.82;;;12.90;99.90;;;;;;4908053;28;93964;-79
2023/12/21 14:24:47;;;;;;;7.15;0.80;;;12.90;99.90;;;;;;4910795;28;93214;-77
2023/12/21 14:27:17;;;;;;;3.42;0.73;;;12.90;99.90;;;;;;4911842;28;91467;-78
2023/12/21 14:29:42;;;;;;;3.20;0.65;;;12.80;99.90;;;;;;4912890;28;93415;-78
2023/12/21 14:32:08;;;;;;;5.07;0.80;;;12.80;99.90;;;;;;4912172;28;93402;-78
2023/12/21 14:34:34;;;;;;;2.95;0.80;;;12.70;99.90;;;;;;4915207;28;94059;-79
2023/12/21 14:37:02;;;;;;;4.47;0.90;;;12.70;99.90;;;;;;4911934;28;92983;-77
2023/12/21 14:39:28;;;;;;;3.88;0.82;;;12.60;99.90;;;;;;4897246;28;96405;-78
2023/12/21 14:41:54;;;;;;;3.55;0.60;;;12.60;99.90;;;;;;4910440;28;95826;-78
2023/12/21 14:44:20;;;;;;;3.17;0.68;;;12.60;99.90;;;;;;4910718;28;92952;-78
2023/12/21 14:46:47;;;;;;;4.28;0.52;;;12.50;99.90;;;;;;4909903;28;92368;-79
2023/12/21 14:49:13;;;;;;;6.57;0.82;;;12.50;99.90;;;;;;4913073;28;93675;-79
2023/12/21 14:51:44;;;;;;;4.25;0.68;;;12.50;99.90;;;;;;4911899;28;94032;-77
2023/12/21 14:54:10;;;;;;;4.70;0.75;;;12.30;99.90;;;;;;4891510;28;92916;-78
2023/12/21 14:56:36;;;;;;;4.70;0.70;;;12.30;99.90;;;;;;4909990;28;92905;-77
2023/12/21 14:59:03;;;;;;;4.70;0.95;;;12.20;99.90;;;;;;4910137;28;94317;-77
2023/12/21 15:01:28;;;;;;;3.67;0.75;;;12.20;99.90;;;;;;4894153;28;94917;-78
2023/12/21 15:03:55;;;;;;;5.25;1.25;;;12.10;99.90;;;;;;4911919;28;92967;-78